createdAt,value
2022-11-20T00:17:55.706Z,-5.16
2022-11-20T00:37:55.694Z,-5.37
2022-11-20T00:57:55.688Z,-5.36
2022-11-20T01:17:55.677Z,-5
2022-11-20T01:37:55.677Z,-5.25
2022-11-20T01:57:55.657Z,-5.27
2022-11-20T02:17:55.649Z,-5.67
2022-11-20T02:37:55.633Z,-5.69
2022-11-20T02:57:55.616Z,-5.63
2022-11-20T03:17:55.617Z,-5.76
2022-11-20T03:37:55.603Z,-5.91
2022-11-20T03:57:55.617Z,-5.99
2022-11-20T04:17:55.585Z,-6.2
2022-11-20T04:37:55.580Z,-6.19
2022-11-20T04:57:55.564Z,-6.43
2022-11-20T05:17:55.569Z,-6.53
2022-11-20T05:57:55.538Z,-6.23
2022-11-20T06:17:55.545Z,-5.72
2022-11-20T06:37:55.527Z,-5.35
2022-11-20T06:57:56.065Z,-5.61
2022-11-20T07:37:55.498Z,-5.48
2022-11-20T08:18:15.723Z,-2.88
2022-11-20T08:37:55.475Z,-2.45
2022-11-20T08:57:55.453Z,-2.98
2022-11-20T09:17:55.421Z,-0.68
2022-11-20T09:37:55.412Z,1.89
2022-11-20T09:57:55.389Z,3.74
2022-11-20T10:37:55.328Z,5.73
2022-11-20T10:57:55.327Z,5.49
2022-11-20T11:17:55.270Z,3.39
2022-11-20T11:37:55.234Z,3.21
2022-11-20T11:57:55.220Z,3.33
2022-11-20T12:37:55.222Z,3.83
2022-11-20T12:57:55.135Z,3.63
2022-11-20T13:17:55.111Z,3.4
2022-11-20T13:37:55.094Z,3.37
2022-11-20T13:57:55.055Z,3.23
2022-11-20T14:17:55.034Z,3
2022-11-20T14:37:55.024Z,2.82
2022-11-20T14:57:54.983Z,2.75
2022-11-20T15:17:54.955Z,2.68
2022-11-20T15:37:54.930Z,2.63
2022-11-20T15:57:54.892Z,2.51
2022-11-20T16:17:54.889Z,2.26
2022-11-20T16:37:54.847Z,2.15
2022-11-20T16:57:54.831Z,2.07
2022-11-20T17:17:54.857Z,2
2022-11-20T17:37:54.784Z,2.06
2022-11-20T17:57:54.757Z,2.03
2022-11-20T18:17:54.727Z,2.04
2022-11-20T18:37:54.708Z,2.12
2022-11-20T18:57:54.697Z,2.2
2022-11-20T19:17:54.669Z,2.36
2022-11-20T19:37:54.628Z,2.56
2022-11-20T19:57:54.616Z,2.71
2022-11-20T20:17:54.590Z,2.83
2022-11-20T20:37:54.561Z,2.88
2022-11-20T20:57:54.533Z,2.86
2022-11-20T21:17:54.504Z,2.58
2022-11-20T22:17:54.444Z,1.88
2022-11-20T22:37:54.436Z,1.76
2022-11-20T22:57:54.384Z,1.65
2022-11-20T23:17:54.360Z,1.6
2022-11-20T23:37:54.333Z,1.55
2022-11-20T23:57:54.329Z,1.43
